Time;durP1;ratioP1;P1;durP2;ratioP2;P2;SDS_P1;SDS_P2;PMS_P1;PMS_P2;Temp;Humidity;BMP_temperature;BMP_pressure;BME280_temperature;BME280_humidity;BME280_pressure;Samples;Min_cycle;Max_cycle;Signal;HPM_P1;HPM_P2
2021/12/20 00:00:15;;;;;;;23.23;3.50;;;6.80;99.90;;;;;;5073934;28;20177;-75
2021/12/20 00:02:48;;;;;;;29.75;3.65;;;6.90;99.90;;;;;;5092234;28;20107;-75
2021/12/20 00:05:15;;;;;;;20.63;2.83;;;6.90;99.90;;;;;;5091992;28;20478;-76
2021/12/20 00:07:41;;;;;;;36.05;3.78;;;6.90;99.90;;;;;;5091695;28;20028;-75
2021/12/20 00:10:07;;;;;;;25.27;3.63;;;6.90;99.90;;;;;;5091784;28;20056;-75
2021/12/20 00:12:34;;;;;;;24.85;2.97;;;6.80;99.90;;;;;;5091699;28;20036;-75
2021/12/20 00:15:00;;;;;;;23.13;3.42;;;6.90;99.90;;;;;;5091861;28;20019;-75
2021/12/20 00:17:29;;;;;;;25.65;3.10;;;6.90;99.90;;;;;;5091990;28;20044;-75
2021/12/20 00:20:01;;;;;;;28.48;3.85;;;6.80;99.90;;;;;;5087237;28;20026;-75
2021/12/20 00:22:27;;;;;;;26.98;4.20;;;6.80;99.90;;;;;;5071712;28;20112;-75
2021/12/20 00:24:53;;;;;;;18.90;2.80;;;6.80;99.90;;;;;;5070982;28;20025;-75
2021/12/20 00:27:20;;;;;;;25.67;3.53;;;6.80;99.90;;;;;;5071080;28;20021;-75
2021/12/20 00:29:49;;;;;;;21.45;3.35;;;6.70;99.90;;;;;;5071064;28;20031;-75
2021/12/20 00:32:23;;;;;;;33.08;3.53;;;6.80;99.90;;;;;;5052170;28;20017;-75
2021/12/20 00:34:52;;;;;;;25.92;4.10;;;6.80;99.90;;;;;;5053192;28;20029;-75
2021/12/20 00:40:21;;;;;;;31.83;3.40;;;6.80;99.90;;;;;;5071367;28;20078;-75
2021/12/20 00:42:58;;;;;;;28.52;4.65;;;6.80;99.90;;;;;;5071244;28;20120;-75
2021/12/20 00:45:30;;;;;;;29.60;3.75;;;6.70;99.90;;;;;;5056688;28;20024;-75
2021/12/20 00:47:57;;;;;;;;;;;6.80;99.90;;;;;;5092202;28;20061;-75
2021/12/20 00:50:25;;;;;;;21.50;3.28;;;6.80;99.90;;;;;;5087584;28;19995;-75
2021/12/20 00:52:57;;;;;;;21.48;3.13;;;6.70;99.90;;;;;;5091661;28;20024;-75
2021/12/20 00:55:25;;;;;;;20.35;4.18;;;6.70;99.90;;;;;;5091631;28;20078;-75
2021/12/20 00:57:55;;;;;;;31.60;3.67;;;6.70;99.90;;;;;;5091630;28;20077;-75
2021/12/20 01:00:24;;;;;;;29.63;4.00;;;6.70;99.90;;;;;;5095239;28;20118;-75
2021/12/20 01:02:51;;;;;;;25.38;2.88;;;6.80;99.90;;;;;;5095539;28;20024;-75
2021/12/20 01:05:21;;;;;;;25.08;3.55;;;6.70;99.90;;;;;;5095609;28;20047;-75
2021/12/20 01:07:49;;;;;;;25.02;4.07;;;6.70;99.90;;;;;;5095386;28;20024;-75
2021/12/20 01:10:19;;;;;;;34.38;4.47;;;6.70;99.90;;;;;;5095156;28;20051;-75
2021/12/20 01:12:49;;;;;;;31.65;3.42;;;6.70;99.90;;;;;;5095495;28;20081;-75
2021/12/20 01:15:22;;;;;;;22.88;3.17;;;6.70;99.90;;;;;;5095438;28;20074;-75
2021/12/20 01:17:56;;;;;;;25.35;3.53;;;6.70;99.90;;;;;;5095272;28;20016;-75
2021/12/20 01:20:25;;;;;;;24.25;3.17;;;6.70;99.90;;;;;;5095040;28;20043;-75
2021/12/20 01:23:01;;;;;;;26.60;3.28;;;6.70;99.90;;;;;;5095192;28;20516;-75
2021/12/20 01:25:27;;;;;;;36.15;3.90;;;6.70;99.90;;;;;;5076822;28;20060;-75
2021/12/20 01:27:54;;;;;;;18.60;2.78;;;6.70;99.90;;;;;;5095207;28;20024;-75
2021/12/20 01:30:25;;;;;;;27.77;3.50;;;6.60;99.90;;;;;;5095105;28;20035;-75
2021/12/20 01:32:52;;;;;;;26.40;3.30;;;6.70;99.90;;;;;;5095137;28;20020;-75
2021/12/20 01:35:19;;;;;;;23.58;3.42;;;6.70;99.90;;;;;;5095046;28;20374;-75
2021/12/20 01:37:46;;;;;;;27.05;2.55;;;6.70;99.90;;;;;;5094976;28;20382;-75
2021/12/20 01:40:18;;;;;;;32.88;3.40;;;6.70;99.90;;;;;;5094907;28;20031;-75
2021/12/20 01:42:46;;;;;;;24.10;3.20;;;6.70;99.90;;;;;;5094930;28;20030;-75
2021/12/20 01:45:23;;;;;;;25.08;4.00;;;6.70;99.90;;;;;;5094824;28;20051;-75
2021/12/20 01:48:03;;;;;;;25.15;2.55;;;6.60;99.90;;;;;;5094867;28;20073;-76
2021/12/20 01:53:23;;;;;;;22.77;3.10;;;6.60;99.90;;;;;;5094786;28;20089;-75
2021/12/20 01:55:53;;;;;;;28.88;2.92;;;6.70;99.90;;;;;;5094516;28;20094;-75
2021/12/20 01:58:20;;;;;;;26.05;3.33;;;6.60;99.90;;;;;;5094593;28;20059;-75
2021/12/20 02:03:39;;;;;;;18.13;3.42;;;6.50;99.90;;;;;;5094491;28;20051;-75
2021/12/20 02:06:12;;;;;;;35.22;3.42;;;6.60;99.90;;;;;;5094233;28;20027;-75
2021/12/20 02:08:40;;;;;;;30.25;3.40;;;6.60;99.90;;;;;;5094430;28;20032;-75
2021/12/20 02:11:09;;;;;;;28.65;3.35;;;6.50;99.90;;;;;;5092995;28;20051;-76
2021/12/20 02:13:41;;;;;;;28.70;3.45;;;6.50;99.90;;;;;;5075962;28;20020;-75
2021/12/20 02:16:15;;;;;;;26.27;2.97;;;6.60;99.90;;;;;;5094289;28;20039;-76
2021/12/20 02:18:41;;;;;;;31.27;3.88;;;6.50;99.90;;;;;;5076005;28;20494;-75
2021/12/20 02:21:12;;;;;;;27.55;2.70;;;6.50;99.90;;;;;;5094002;28;20031;-75
2021/12/20 02:23:42;;;;;;;20.50;2.67;;;6.50;99.90;;;;;;5094112;28;20024;-75
2021/12/20 02:26:11;;;;;;;26.17;3.65;;;6.50;99.90;;;;;;5094065;28;20031;-75
2021/12/20 02:28:43;;;;;;;27.10;3.45;;;6.60;99.90;;;;;;5086126;28;20031;-75
2021/12/20 02:39:21;;;;;;;31.83;4.70;;;6.50;99.90;;;;;;5094005;28;20488;-75
2021/12/20 02:41:47;;;;;;;26.65;3.40;;;6.40;99.90;;;;;;5093884;28;20035;-75
2021/12/20 02:44:18;;;;;;;21.75;3.67;;;6.50;99.90;;;;;;5093648;28;20492;-75
2021/12/20 02:47:06;;;;;;;25.48;3.38;;;6.40;99.90;;;;;;5093651;28;20028;-75
2021/12/20 02:49:35;;;;;;;29.95;3.33;;;6.40;99.90;;;;;;5093324;28;20031;-75
2021/12/20 02:52:07;;;;;;;31.30;3.90;;;6.40;99.90;;;;;;5093516;28;20028;-75
2021/12/20 02:54:39;;;;;;;37.13;3.75;;;6.40;99.90;;;;;;5093317;28;20024;-75
2021/12/20 02:57:08;;;;;;;23.10;3.45;;;6.40;99.90;;;;;;5093551;28;20042;-75
2021/12/20 02:59:38;;;;;;;25.15;2.85;;;6.40;99.90;;;;;;5093274;28;20020;-75
2021/12/20 03:02:08;;;;;;;28.23;3.00;;;6.30;99.90;;;;;;5075234;28;20118;-75
2021/12/20 03:04:35;;;;;;;20.10;3.15;;;6.40;99.90;;;;;;5093284;28;20107;-76
2021/12/20 03:07:11;;;;;;;28.92;3.13;;;6.40;99.90;;;;;;5093187;28;20028;-75
2021/12/20 03:09:42;;;;;;;27.02;3.80;;;6.30;99.90;;;;;;5092826;28;20032;-75
2021/12/20 03:12:11;;;;;;;31.33;4.00;;;6.30;99.90;;;;;;5093118;28;20048;-75
2021/12/20 03:14:42;;;;;;;26.40;3.45;;;6.30;99.90;;;;;;5093096;28;20477;-75
2021/12/20 03:17:09;;;;;;;27.15;3.75;;;6.30;99.90;;;;;;5093112;28;20052;-75
2021/12/20 03:19:38;;;;;;;31.42;3.30;;;6.30;99.90;;;;;;5091282;28;20020;-75
2021/12/20 03:22:07;;;;;;;26.25;2.88;;;6.30;99.90;;;;;;5072755;28;20028;-75
2021/12/20 03:24:34;;;;;;;26.88;3.35;;;6.30;99.90;;;;;;5054402;28;20104;-75
2021/12/20 03:27:00;;;;;;;26.73;3.05;;;6.30;99.90;;;;;;5072785;28;20052;-75
2021/12/20 03:29:29;;;;;;;29.50;2.85;;;6.20;99.90;;;;;;5072625;28;20032;-75
2021/12/20 03:31:58;;;;;;;32.55;4.45;;;6.30;99.90;;;;;;5054599;28;20106;-75
2021/12/20 03:34:24;;;;;;;28.25;3.58;;;6.30;99.90;;;;;;5072321;28;20130;-75
2021/12/20 03:36:56;;;;;;;23.42;3.35;;;6.20;99.90;;;;;;5072528;28;20025;-75
2021/12/20 03:39:22;;;;;;;28.88;3.47;;;6.30;99.90;;;;;;5072296;28;20033;-75
2021/12/20 03:41:51;;;;;;;22.98;3.90;;;6.30;99.90;;;;;;5054406;28;20029;-78
2021/12/20 03:44:17;;;;;;;25.70;3.35;;;6.20;99.90;;;;;;5072239;28;20028;-75
2021/12/20 03:46:46;;;;;;;27.67;3.03;;;6.20;99.90;;;;;;5082581;28;20029;-75
2021/12/20 03:49:14;;;;;;;31.65;3.30;;;6.10;99.90;;;;;;5092259;28;20035;-75
2021/12/20 03:51:40;;;;;;;24.15;2.90;;;6.20;99.90;;;;;;5074206;28;20028;-75
2021/12/20 03:54:09;;;;;;;24.35;3.15;;;6.20;99.90;;;;;;5092335;28;20459;-75
2021/12/20 03:56:35;;;;;;;25.83;3.83;;;6.30;99.90;;;;;;5092501;28;20038;-75
2021/12/20 03:59:02;;;;;;;24.95;3.22;;;6.20;99.90;;;;;;5092329;28;20111;-75
2021/12/20 04:01:31;;;;;;;18.83;2.63;;;6.20;99.90;;;;;;5092378;28;20020;-75
2021/12/20 04:04:00;;;;;;;32.30;2.95;;;6.20;99.90;;;;;;5092206;28;20024;-75
2021/12/20 04:06:31;;;;;;;27.42;4.60;;;6.20;99.90;;;;;;5092162;28;20020;-75
2021/12/20 04:09:00;;;;;;;21.80;2.92;;;6.20;99.90;;;;;;5092123;28;20085;-75
2021/12/20 04:11:29;;;;;;;36.25;3.88;;;6.20;99.90;;;;;;5091922;28;20077;-75
2021/12/20 04:13:56;;;;;;;27.63;3.88;;;6.20;99.90;;;;;;5092025;28;20077;-75
2021/12/20 04:16:25;;;;;;;26.00;2.90;;;6.20;99.90;;;;;;5092150;28;20024;-75
2021/12/20 04:18:54;;;;;;;23.10;3.00;;;6.20;99.90;;;;;;5092003;28;20035;-75
2021/12/20 04:21:21;;;;;;;19.90;3.50;;;6.20;99.90;;;;;;5075649;28;20111;-75
2021/12/20 04:23:48;;;;;;;33.05;3.88;;;6.20;99.90;;;;;;5053684;28;20036;-75
2021/12/20 04:26:20;;;;;;;20.08;2.60;;;6.20;99.90;;;;;;5071741;28;20032;-75
2021/12/20 04:28:47;;;;;;;18.27;2.55;;;6.20;99.90;;;;;;5071766;28;20046;-75
2021/12/20 04:31:13;;;;;;;25.40;3.17;;;6.10;99.90;;;;;;5071936;28;20591;-75
2021/12/20 04:33:40;;;;;;;35.45;3.78;;;6.10;99.90;;;;;;5071199;28;20036;-75
2021/12/20 04:36:14;;;;;;;17.42;2.63;;;6.20;99.90;;;;;;5071632;28;20021;-76
2021/12/20 04:38:41;;;;;;;22.40;3.13;;;6.20;99.90;;;;;;5071521;28;20035;-75
2021/12/20 04:41:10;;;;;;;24.75;3.15;;;6.20;99.90;;;;;;5053344;28;20410;-75
2021/12/20 04:43:38;;;;;;;23.13;3.85;;;6.20;99.90;;;;;;5071679;28;20029;-75
2021/12/20 04:46:07;;;;;;;18.63;2.72;;;6.20;99.90;;;;;;5076369;28;20039;-75
2021/12/20 04:48:33;;;;;;;27.92;3.83;;;6.20;99.90;;;;;;5091795;28;20039;-75
2021/12/20 04:50:59;;;;;;;25.45;3.85;;;6.20;99.90;;;;;;5091406;28;20529;-75
2021/12/20 04:53:26;;;;;;;20.55;3.63;;;6.10;99.90;;;;;;5091753;28;20017;-75
2021/12/20 04:55:57;;;;;;;28.35;3.50;;;6.10;99.90;;;;;;5106919;28;20385;-75
2021/12/20 04:58:23;;;;;;;33.33;5.40;;;6.10;99.90;;;;;;5112108;28;20020;-75
2021/12/20 05:00:49;;;;;;;30.02;3.10;;;6.10;99.90;;;;;;5112097;28;20027;-75
2021/12/20 05:03:16;;;;;;;20.58;2.83;;;6.10;99.90;;;;;;5111918;28;20055;-75
2021/12/20 05:05:42;;;;;;;41.25;3.50;;;6.10;99.90;;;;;;5111820;28;20103;-75
2021/12/20 05:08:12;;;;;;;26.52;3.35;;;6.10;99.90;;;;;;5111746;28;20063;-75
2021/12/20 05:10:43;;;;;;;21.00;3.58;;;6.10;99.90;;;;;;5111534;28;20048;-75
2021/12/20 05:13:13;;;;;;;38.40;3.88;;;6.10;99.90;;;;;;5111990;28;20106;-75
2021/12/20 05:15:40;;;;;;;32.30;3.50;;;6.10;99.90;;;;;;5111852;28;20030;-77
2021/12/20 05:18:08;;;;;;;36.58;3.17;;;6.10;99.90;;;;;;5111869;28;20478;-75
2021/12/20 05:20:35;;;;;;;25.75;3.05;;;6.10;99.90;;;;;;5083506;28;20390;-75
2021/12/20 05:23:04;;;;;;;21.02;3.90;;;6.10;99.90;;;;;;5091518;28;20024;-75
2021/12/20 05:25:31;;;;;;;26.90;3.50;;;6.10;99.90;;;;;;5091361;28;20485;-75
2021/12/20 05:27:59;;;;;;;25.15;2.83;;;6.00;99.90;;;;;;5091373;28;20070;-75
2021/12/20 05:30:25;;;;;;;32.15;3.30;;;6.10;99.90;;;;;;5091287;28;20059;-75
2021/12/20 05:32:51;;;;;;;28.42;3.08;;;6.00;99.90;;;;;;5097477;28;20032;-75
2021/12/20 05:35:19;;;;;;;26.67;3.28;;;6.00;99.90;;;;;;5101055;28;20015;-75
2021/12/20 05:37:45;;;;;;;33.78;3.63;;;6.10;99.90;;;;;;5102288;28;20042;-75
2021/12/20 05:40:13;;;;;;;22.50;2.92;;;6.00;99.90;;;;;;5099045;28;20048;-75
2021/12/20 05:42:42;;;;;;;30.55;2.88;;;6.00;99.90;;;;;;5102135;28;20472;-75
2021/12/20 05:45:09;;;;;;;28.85;3.47;;;6.00;99.90;;;;;;5099679;28;20368;-75
2021/12/20 05:47:35;;;;;;;20.88;3.65;;;6.00;99.90;;;;;;5103733;28;20043;-75
2021/12/20 05:50:05;;;;;;;24.75;3.25;;;6.10;99.90;;;;;;5085113;28;20115;-76
2021/12/20 05:52:31;;;;;;;26.50;4.68;;;6.10;99.90;;;;;;5082748;28;20020;-75
2021/12/20 05:55:00;;;;;;;23.35;3.65;;;6.00;99.90;;;;;;5106348;28;20468;-76
2021/12/20 05:57:26;;;;;;;34.25;3.55;;;5.90;99.90;;;;;;5103512;28;20028;-75
2021/12/20 05:59:55;;;;;;;24.90;4.35;;;5.90;99.90;;;;;;5106204;28;20035;-76
2021/12/20 06:02:26;;;;;;;23.30;3.10;;;5.90;99.90;;;;;;5103159;28;20023;-75
2021/12/20 06:04:54;;;;;;;16.83;2.63;;;5.90;99.90;;;;;;5100839;28;20039;-76
2021/12/20 06:07:24;;;;;;;32.95;4.10;;;5.90;99.90;;;;;;5103176;28;20024;-76
2021/12/20 06:09:50;;;;;;;23.70;3.97;;;5.90;99.90;;;;;;5102892;28;20020;-76
2021/12/20 06:12:28;;;;;;;24.20;3.10;;;5.90;99.90;;;;;;5104336;28;20490;-76
2021/12/20 06:15:19;;;;;;;21.88;3.13;;;5.90;99.90;;;;;;5105264;28;20028;-75
2021/12/20 06:18:04;;;;;;;26.17;2.80;;;5.80;99.90;;;;;;5103207;28;20031;-76
2021/12/20 06:20:30;;;;;;;34.60;3.47;;;5.90;99.90;;;;;;5086447;28;20020;-76
2021/12/20 06:22:57;;;;;;;18.88;2.88;;;5.80;99.90;;;;;;5094155;28;20024;-76
2021/12/20 06:25:25;;;;;;;24.45;3.58;;;5.80;99.90;;;;;;5093981;28;20040;-76
2021/12/20 06:27:57;;;;;;;23.27;3.53;;;5.70;99.90;;;;;;5094196;28;20035;-75
2021/12/20 06:30:26;;;;;;;;;;;5.80;99.90;;;;;;5094008;28;20024;-75
2021/12/20 06:32:55;;;;;;;24.85;2.83;;;5.70;99.90;;;;;;5076018;28;19908;-75
2021/12/20 06:35:22;;;;;;;22.33;3.17;;;5.70;99.90;;;;;;5104003;28;20020;-75
2021/12/20 06:37:58;;;;;;;27.13;2.97;;;5.70;99.90;;;;;;5101954;28;20012;-75
2021/12/20 06:40:29;;;;;;;20.23;2.83;;;5.50;99.90;;;;;;5083713;28;20327;-75
2021/12/20 06:42:56;;;;;;;25.38;2.90;;;5.60;99.90;;;;;;5101920;28;20024;-75
2021/12/20 06:45:22;;;;;;;19.58;3.25;;;5.60;99.90;;;;;;5103111;28;20091;-75
2021/12/20 06:47:51;;;;;;;19.85;3.30;;;5.50;99.90;;;;;;5102918;28;20028;-75
2021/12/20 06:50:19;;;;;;;21.33;3.58;;;5.50;99.90;;;;;;5099623;28;20020;-73
2021/12/20 06:52:48;;;;;;;22.73;3.65;;;5.50;99.90;;;;;;5101933;28;20055;-72
2021/12/20 06:55:17;;;;;;;33.35;3.80;;;5.60;99.90;;;;;;5093539;28;20020;-77
2021/12/20 06:57:49;;;;;;;22.77;3.38;;;5.60;99.90;;;;;;5075137;28;20020;-75
2021/12/20 07:00:18;;;;;;;26.00;3.50;;;5.70;99.90;;;;;;5093806;28;20111;-71
2021/12/20 07:02:44;;;;;;;22.40;3.10;;;5.60;99.90;;;;;;5101388;28;20034;-76
2021/12/20 07:05:11;;;;;;;22.13;3.28;;;5.70;99.90;;;;;;5102720;28;20024;-74
2021/12/20 07:07:37;;;;;;;27.48;3.08;;;5.70;99.90;;;;;;5084241;28;20460;-76
2021/12/20 07:10:04;;;;;;;19.38;3.72;;;5.70;99.90;;;;;;5105680;28;20032;-78
2021/12/20 07:12:32;;;;;;;21.63;3.17;;;5.60;99.90;;;;;;5114747;28;20555;-77
2021/12/20 07:14:57;;;;;;;28.70;4.63;;;5.60;99.90;;;;;;5114621;28;20047;-77
2021/12/20 07:17:23;;;;;;;35.20;6.28;;;5.60;99.90;;;;;;5111512;28;20026;-77
2021/12/20 07:19:48;;;;;;;26.55;2.85;;;5.60;99.90;;;;;;5110504;28;20012;-77
2021/12/20 07:22:14;;;;;;;25.42;3.78;;;5.60;99.90;;;;;;5093623;28;20028;-76
2021/12/20 07:24:40;;;;;;;22.73;4.05;;;5.60;99.90;;;;;;5093272;28;20031;-76
2021/12/20 07:27:07;;;;;;;25.35;3.13;;;5.60;99.90;;;;;;5093249;28;20183;-76
2021/12/20 07:29:33;;;;;;;19.52;3.75;;;5.60;99.90;;;;;;5075376;28;20036;-76
2021/12/20 07:31:59;;;;;;;21.90;3.78;;;5.60;99.90;;;;;;5075615;28;20066;-76
2021/12/20 07:34:24;;;;;;;25.65;3.80;;;5.70;99.90;;;;;;5093967;28;20020;-77
2021/12/20 07:36:51;;;;;;;24.90;4.22;;;5.60;99.90;;;;;;5093804;28;20020;-77
2021/12/20 07:39:16;;;;;;;22.02;3.88;;;5.70;99.90;;;;;;5093885;28;20113;-77
2021/12/20 07:41:42;;;;;;;24.60;4.65;;;5.60;99.90;;;;;;5078980;28;20028;-77
2021/12/20 07:44:08;;;;;;;19.92;4.22;;;5.60;99.90;;;;;;5099994;28;20020;-77
2021/12/20 07:46:33;;;;;;;34.70;5.45;;;5.70;99.90;;;;;;5108353;28;20366;-76
2021/12/20 07:49:00;;;;;;;26.80;4.38;;;5.70;99.90;;;;;;5093516;28;20031;-76
2021/12/20 07:51:26;;;;;;;18.42;3.95;;;5.70;99.90;;;;;;5100171;28;20430;-79
2021/12/20 07:53:51;;;;;;;19.98;3.47;;;5.60;99.90;;;;;;5093501;28;20200;-76
2021/12/20 07:56:18;;;;;;;27.83;4.88;;;5.70;99.90;;;;;;5093379;28;20056;-78
2021/12/20 07:58:44;;;;;;;37.08;6.70;;;5.60;99.90;;;;;;5092782;28;20065;-78
2021/12/20 08:01:10;;;;;;;37.35;8.75;;;5.60;99.90;;;;;;5098479;28;20031;-78
2021/12/20 08:03:38;;;;;;;42.47;14.27;;;5.70;99.90;;;;;;5105393;28;20478;-74
2021/12/20 08:06:04;;;;;;;53.30;14.25;;;5.70;99.90;;;;;;5112798;28;20338;-74
2021/12/20 08:08:30;;;;;;;29.27;6.35;;;5.70;99.90;;;;;;5104334;28;20078;-74
2021/12/20 08:10:57;;;;;;;28.75;5.88;;;5.60;99.90;;;;;;5101740;28;20076;-74
2021/12/20 08:13:22;;;;;;;23.38;5.60;;;5.60;99.90;;;;;;5100878;28;20805;-74
2021/12/20 08:15:48;;;;;;;28.30;4.80;;;5.70;99.90;;;;;;5100081;28;20051;-75
2021/12/20 08:18:14;;;;;;;21.67;4.47;;;5.70;99.90;;;;;;5069116;28;20016;-74
2021/12/20 08:20:40;;;;;;;18.92;3.78;;;5.70;99.90;;;;;;5082270;28;20028;-74
2021/12/20 08:23:06;;;;;;;17.30;3.38;;;5.80;99.90;;;;;;5085346;28;20028;-75
2021/12/20 08:25:31;;;;;;;33.55;4.82;;;5.80;99.90;;;;;;5072741;28;20032;-75
2021/12/20 08:27:58;;;;;;;24.02;3.95;;;5.70;99.90;;;;;;5083140;28;20032;-73
2021/12/20 08:30:24;;;;;;;16.08;3.78;;;5.90;99.90;;;;;;5078797;28;20036;-73
2021/12/20 08:32:51;;;;;;;21.48;3.20;;;5.90;99.90;;;;;;5084155;28;20207;-74
2021/12/20 08:35:16;;;;;;;23.63;3.28;;;5.90;99.90;;;;;;5090034;28;20047;-74
2021/12/20 08:37:43;;;;;;;18.95;2.88;;;5.90;99.90;;;;;;5088629;28;20028;-74
2021/12/20 08:40:11;;;;;;;28.63;4.70;;;6.00;99.90;;;;;;5085483;28;20074;-74
2021/12/20 08:42:38;;;;;;;25.30;3.35;;;6.00;99.90;;;;;;5089997;28;20075;-74
2021/12/20 08:45:06;;;;;;;18.42;2.75;;;6.00;99.90;;;;;;5072601;28;20036;-74
2021/12/20 08:47:32;;;;;;;24.52;3.38;;;6.00;99.90;;;;;;5082152;28;20024;-73
2021/12/20 08:49:59;;;;;;;24.08;4.38;;;6.00;99.90;;;;;;5080165;28;20020;-73
2021/12/20 08:52:25;;;;;;;23.27;3.25;;;6.00;99.90;;;;;;5073500;28;20517;-74
2021/12/20 08:54:51;;;;;;;15.30;3.03;;;6.10;99.90;;;;;;5091497;28;20048;-73
2021/12/20 08:57:16;;;;;;;15.70;3.30;;;6.10;99.90;;;;;;5101407;28;20032;-73
2021/12/20 08:59:42;;;;;;;25.50;3.85;;;6.20;99.90;;;;;;5076320;28;20369;-74
2021/12/20 09:02:09;;;;;;;26.92;4.63;;;6.20;99.90;;;;;;5098322;28;20032;-72
2021/12/20 09:04:35;;;;;;;21.08;4.15;;;6.10;99.90;;;;;;5081682;28;20555;-73
2021/12/20 09:07:01;;;;;;;27.13;3.90;;;6.20;99.90;;;;;;5076542;28;20035;-74
2021/12/20 09:09:27;;;;;;;24.23;6.07;;;6.30;99.90;;;;;;5081096;28;20452;-72
2021/12/20 09:11:52;;;;;;;23.95;4.50;;;6.20;99.90;;;;;;5056036;28;20048;-72
2021/12/20 09:14:18;;;;;;;16.33;3.67;;;6.30;99.90;;;;;;5072321;28;20039;-72
2021/12/20 09:16:43;;;;;;;24.20;3.90;;;6.30;99.90;;;;;;5071339;28;20116;-72
2021/12/20 09:19:10;;;;;;;18.52;3.67;;;6.30;99.90;;;;;;5092700;28;20028;-73
2021/12/20 09:21:35;;;;;;;24.67;4.05;;;6.40;99.90;;;;;;5089876;28;20042;-72
2021/12/20 09:24:03;;;;;;;17.63;2.95;;;6.40;99.90;;;;;;5093132;28;20110;-71
2021/12/20 09:26:29;;;;;;;25.20;5.30;;;6.50;99.90;;;;;;5094959;28;20053;-72
2021/12/20 09:28:55;;;;;;;20.48;3.22;;;6.50;99.90;;;;;;5095081;28;20131;-72
2021/12/20 09:31:21;;;;;;;17.70;3.60;;;6.50;99.90;;;;;;5086545;28;20103;-72
2021/12/20 09:33:46;;;;;;;21.20;4.22;;;6.50;99.90;;;;;;5056067;28;20033;-72
2021/12/20 09:36:12;;;;;;;24.52;4.07;;;6.50;99.90;;;;;;5089141;28;20068;-72
2021/12/20 09:38:38;;;;;;;17.92;3.60;;;6.60;99.90;;;;;;5079440;28;20020;-72
2021/12/20 09:43:46;;;;;;;17.50;2.83;;;6.80;99.90;;;;;;5079129;28;20032;-72
2021/12/20 09:46:12;;;;;;;15.73;2.65;;;6.70;99.90;;;;;;5077579;28;20062;-72
2021/12/20 09:48:38;;;;;;;14.93;3.05;;;6.80;99.90;;;;;;5085944;28;20090;-72
2021/12/20 09:51:05;;;;;;;19.10;3.00;;;6.80;99.90;;;;;;5089637;28;20477;-72
2021/12/20 09:53:31;;;;;;;16.25;3.33;;;6.80;99.90;;;;;;5074887;28;20446;-72
2021/12/20 09:55:58;;;;;;;27.55;3.90;;;6.90;99.90;;;;;;5083721;28;20188;-72
2021/12/20 09:58:25;;;;;;;17.92;3.03;;;6.90;99.90;;;;;;5096343;28;20509;-71
2021/12/20 10:00:51;;;;;;;23.58;3.13;;;6.90;99.90;;;;;;5099871;28;20056;-72
2021/12/20 10:03:21;;;;;;;22.17;2.83;;;7.00;99.90;;;;;;5103531;28;20042;-72
2021/12/20 10:05:48;;;;;;;10.43;2.78;;;7.10;99.90;;;;;;5101673;28;20149;-71
2021/12/20 10:08:19;;;;;;;20.23;3.72;;;7.00;99.90;;;;;;5103520;28;20703;-72
2021/12/20 10:10:49;;;;;;;22.00;5.50;;;7.10;99.90;;;;;;5084552;28;20055;-72
2021/12/20 10:13:30;;;;;;;18.48;3.72;;;7.10;99.90;;;;;;5097390;28;20015;-72
2021/12/20 10:15:57;;;;;;;17.92;3.25;;;7.00;99.90;;;;;;5089223;28;20031;-73
2021/12/20 10:18:24;;;;;;;28.20;5.72;;;7.20;99.90;;;;;;5094538;28;20039;-76
2021/12/20 10:20:53;;;;;;;25.98;7.10;;;7.30;99.90;;;;;;5082332;28;20028;-73
2021/12/20 10:23:21;;;;;;;21.60;5.20;;;7.20;99.90;;;;;;5064659;28;20181;-73
2021/12/20 10:25:49;;;;;;;21.90;4.65;;;7.40;99.90;;;;;;5093156;28;20378;-73
2021/12/20 10:28:18;;;;;;;20.38;3.13;;;7.30;99.90;;;;;;5074825;28;20111;-72
2021/12/20 10:30:47;;;;;;;27.45;3.92;;;7.40;99.90;;;;;;5055466;28;20442;-72
2021/12/20 10:33:16;;;;;;;22.08;3.55;;;7.50;99.90;;;;;;5085236;28;20149;-72
2021/12/20 10:35:46;;;;;;;22.65;4.70;;;7.60;99.90;;;;;;5087256;28;20024;-72
2021/12/20 10:38:24;;;;;;;27.02;3.45;;;7.70;99.90;;;;;;5099597;28;20023;-73
2021/12/20 10:41:00;;;;;;;20.23;4.43;;;7.80;99.90;;;;;;5078838;28;20028;-73
2021/12/20 10:43:47;;;;;;;26.50;4.32;;;7.80;99.90;;;;;;5104556;28;20086;-72
2021/12/20 10:46:41;;;;;;;17.02;4.63;;;7.70;99.90;;;;;;5062000;28;20028;-72
2021/12/20 10:49:15;;;;;;;17.35;3.45;;;7.80;99.90;;;;;;5087750;28;20063;-72
2021/12/20 10:51:51;;;;;;;15.85;3.00;;;7.60;99.90;;;;;;5080173;28;20024;-73
2021/12/20 10:54:20;;;;;;;21.13;3.10;;;7.50;99.90;;;;;;5073156;28;20031;-73
2021/12/20 10:56:57;;;;;;;19.70;3.05;;;7.50;99.90;;;;;;5087456;28;20022;-74
2021/12/20 10:59:25;;;;;;;16.60;2.63;;;7.40;99.90;;;;;;5093494;28;20104;-72
2021/12/20 11:04:23;;;;;;;14.85;1.85;;;7.40;99.90;;;;;;5091537;28;20056;-75
2021/12/20 11:07:03;;;;;;;13.40;1.88;;;7.20;99.90;;;;;;5073019;28;20031;-71
2021/12/20 11:09:35;;;;;;;16.13;2.22;;;7.30;99.90;;;;;;5072739;28;20054;-72
2021/12/20 11:12:04;;;;;;;16.17;1.83;;;7.10;99.90;;;;;;5072573;28;20376;-73
2021/12/20 11:14:40;;;;;;;24.02;5.80;;;7.20;99.90;;;;;;5072678;28;20340;-72
2021/12/20 11:17:08;;;;;;;19.33;2.40;;;7.20;99.90;;;;;;5098878;28;20056;-72
2021/12/20 11:19:34;;;;;;;25.25;2.97;;;7.20;99.90;;;;;;5092887;28;20032;-72
2021/12/20 11:22:08;;;;;;;13.60;2.05;;;7.20;99.90;;;;;;5090883;28;20473;-73
2021/12/20 11:24:52;;;;;;;16.70;2.92;;;7.10;99.90;;;;;;5091011;28;20036;-73
2021/12/20 11:27:32;;;;;;;12.15;2.10;;;7.20;99.90;;;;;;5093003;28;20028;-74
2021/12/20 11:30:06;;;;;;;12.88;1.83;;;7.40;99.90;;;;;;5072494;28;20111;-72
2021/12/20 11:32:31;;;;;;;25.88;2.50;;;7.40;99.90;;;;;;5089690;28;20032;-74
2021/12/20 11:34:57;;;;;;;17.70;2.35;;;7.50;99.90;;;;;;5105863;28;20027;-74
2021/12/20 11:37:25;;;;;;;17.77;2.03;;;7.30;99.90;;;;;;5100488;28;20031;-74
2021/12/20 11:39:52;;;;;;;16.23;2.42;;;7.40;99.90;;;;;;5082889;28;20031;-74
2021/12/20 11:42:19;;;;;;;15.30;2.95;;;7.40;99.90;;;;;;5102893;28;20027;-73
2021/12/20 11:44:48;;;;;;;16.08;1.90;;;7.20;99.90;;;;;;5095379;28;20027;-74
2021/12/20 11:47:23;;;;;;;12.63;1.73;;;7.30;99.90;;;;;;5095265;28;20097;-74
2021/12/20 11:49:59;;;;;;;10.95;2.50;;;7.50;99.90;;;;;;5100729;28;20423;-74
2021/12/20 11:52:33;;;;;;;23.42;2.42;;;7.50;99.90;;;;;;5071466;28;20032;-74
2021/12/20 11:54:59;;;;;;;15.65;2.17;;;7.70;99.90;;;;;;5071175;28;20095;-74
2021/12/20 11:57:28;;;;;;;13.85;1.65;;;7.80;99.90;;;;;;5080757;28;20024;-74
2021/12/20 11:59:55;;;;;;;15.02;1.80;;;7.90;99.90;;;;;;5096763;28;20035;-74
2021/12/20 12:02:28;;;;;;;11.57;1.75;;;7.90;99.90;;;;;;5109644;28;20097;-74
2021/12/20 12:04:58;;;;;;;16.23;2.00;;;8.00;99.90;;;;;;5094057;28;20024;-74
2021/12/20 12:07:31;;;;;;;13.52;2.30;;;8.20;99.90;;;;;;5082425;28;20059;-77
2021/12/20 12:10:04;;;;;;;21.27;2.60;;;8.30;99.90;;;;;;5091687;28;20038;-74
2021/12/20 12:12:31;;;;;;;17.13;2.00;;;8.30;99.90;;;;;;5091882;28;20052;-75
2021/12/20 12:15:07;;;;;;;15.50;2.15;;;8.40;99.90;;;;;;5074019;28;20075;-74
2021/12/20 12:17:56;;;;;;;19.75;2.65;;;8.40;99.90;;;;;;5090328;28;20031;-75
2021/12/20 12:20:52;;;;;;;15.00;2.10;;;8.60;99.90;;;;;;5080091;28;20028;-74
2021/12/20 12:23:22;;;;;;;12.38;1.80;;;8.70;99.90;;;;;;5071747;28;20056;-74
2021/12/20 12:25:56;;;;;;;15.32;2.13;;;8.70;99.90;;;;;;5082723;28;20460;-74
2021/12/20 12:28:42;;;;;;;12.68;1.80;;;8.70;99.90;;;;;;5091480;28;20024;-74
2021/12/20 12:31:08;;;;;;;20.08;2.30;;;8.70;99.90;;;;;;5092264;28;20114;-74
2021/12/20 12:33:39;;;;;;;15.57;2.40;;;8.90;99.90;;;;;;5100178;28;20524;-74
2021/12/20 12:36:23;;;;;;;17.58;3.17;;;8.80;99.90;;;;;;5102777;28;20024;-74
2021/12/20 12:38:52;;;;;;;10.55;2.00;;;8.70;99.90;;;;;;5070831;28;20028;-74
2021/12/20 12:41:25;;;;;;;11.75;1.80;;;8.60;99.90;;;;;;5091493;28;20016;-74
2021/12/20 12:44:05;;;;;;;;;;;8.50;99.90;;;;;;5087555;28;20036;-74
2021/12/20 12:46:37;;;;;;;23.40;3.70;;;8.40;99.90;;;;;;5098376;28;19912;-73
2021/12/20 12:49:21;;;;;;;12.85;1.92;;;8.20;99.90;;;;;;5080559;28;20129;-74
2021/12/20 12:51:47;;;;;;;16.13;1.92;;;7.90;99.90;;;;;;5088355;28;20057;-74
2021/12/20 12:54:44;;;;;;;18.00;2.40;;;7.90;99.90;;;;;;5090642;28;20363;-73
2021/12/20 12:57:12;;;;;;;16.10;2.42;;;7.90;99.90;;;;;;5098787;28;20050;-74
2021/12/20 12:59:50;;;;;;;11.50;1.92;;;7.60;99.90;;;;;;5091157;28;20366;-74
2021/12/20 13:02:24;;;;;;;11.70;1.88;;;7.50;99.90;;;;;;5103970;28;20107;-74
2021/12/20 13:04:51;;;;;;;23.08;2.00;;;7.60;99.90;;;;;;5090819;28;20027;-74
2021/12/20 13:07:30;;;;;;;17.25;2.47;;;7.50;99.90;;;;;;5105152;28;20032;-74
2021/12/20 13:09:59;;;;;;;26.05;2.38;;;7.50;99.90;;;;;;5073038;28;20031;-74
2021/12/20 13:15:09;;;;;;;17.10;2.20;;;7.40;99.90;;;;;;5086329;28;20025;-73
2021/12/20 13:17:43;;;;;;;16.60;2.08;;;7.30;99.90;;;;;;5091478;28;20393;-73
2021/12/20 13:20:33;;;;;;;10.65;1.88;;;7.30;99.90;;;;;;5084039;28;20016;-74
2021/12/20 13:23:16;;;;;;;22.05;2.42;;;7.30;99.90;;;;;;5062646;28;20493;-73